Time;durP1;ratioP1;P1;durP2;ratioP2;P2;SDS_P1;SDS_P2;PMS_P1;PMS_P2;Temp;Humidity;BMP_temperature;BMP_pressure;BME280_temperature;BME280_humidity;BME280_pressure;Samples;Min_cycle;Max_cycle;Signal;HPM_P1;HPM_P2
2021/10/11 00:01:32;;;;;;;130.95;68.25;;;;;;;10.85;100.00;102062.13;5063678;28;20477;-82
2021/10/11 00:03:59;;;;;;;135.07;66.72;;;;;;;10.84;100.00;102052.34;5064882;28;20041;-83
2021/10/11 00:06:25;;;;;;;140.20;75.53;;;;;;;10.85;100.00;102059.44;5066524;28;20554;-87
2021/10/11 00:08:50;;;;;;;150.13;82.82;;;;;;;10.87;100.00;102054.75;5063111;28;20048;-84
2021/10/11 00:11:15;;;;;;;148.00;77.68;;;;;;;10.94;100.00;102058.63;5060867;28;20102;-83
2021/10/11 00:13:41;;;;;;;146.57;79.20;;;;;;;10.91;100.00;102056.22;5067300;28;20527;-82
2021/10/11 00:16:06;;;;;;;147.95;77.22;;;;;;;10.95;100.00;102063.00;5070672;28;20040;-91
2021/10/11 00:18:33;;;;;;;161.50;82.47;;;;;;;10.96;100.00;102053.97;5078654;28;20065;-88
2021/10/11 00:20:59;;;;;;;159.77;79.97;;;;;;;10.96;100.00;102043.22;5063157;28;20075;-84
2021/10/11 00:23:25;;;;;;;165.85;82.30;;;;;;;10.91;100.00;102048.16;5064435;28;20040;-80
2021/10/11 00:25:53;;;;;;;161.75;77.65;;;;;;;10.94;100.00;102060.47;5066794;28;20040;-84
2021/10/11 00:28:19;;;;;;;157.60;77.00;;;;;;;10.92;100.00;102052.53;5058633;28;20049;-92
2021/10/11 00:30:44;;;;;;;165.38;76.93;;;;;;;10.92;100.00;102052.53;5066333;28;20044;-85
2021/10/11 00:33:10;;;;;;;160.50;75.03;;;;;;;10.92;100.00;102054.38;5051455;28;20050;-85
2021/10/11 00:35:37;;;;;;;172.00;79.72;;;;;;;10.95;100.00;102046.88;5046928;28;20119;-83
2021/10/11 00:38:03;;;;;;;157.18;72.85;;;;;;;10.99;100.00;102059.06;5069132;28;20068;-84
2021/10/11 00:40:32;;;;;;;158.77;79.30;;;;;;;11.00;100.00;102060.75;5069550;28;20128;-85
2021/10/11 00:42:58;;;;;;;;;;;;;;;11.01;100.00;102057.06;5069308;28;20379;-88
2021/10/11 00:45:24;;;;;;;151.93;71.68;;;;;;;10.97;100.00;102058.34;5060943;28;19980;-84
2021/10/11 00:47:50;;;;;;;140.55;64.40;;;;;;;10.98;100.00;102056.50;5069382;28;20505;-84
2021/10/11 00:50:18;;;;;;;151.93;75.63;;;;;;;11.01;100.00;102058.91;5041735;28;20041;-87
2021/10/11 00:52:44;;;;;;;142.05;65.65;;;;;;;11.07;100.00;102055.69;5047491;28;20157;-81
2021/10/11 00:55:09;;;;;;;132.57;62.53;;;;;;;11.12;100.00;102052.59;5043381;28;20158;-88
2021/10/11 00:57:39;;;;;;;124.53;62.88;;;;;;;11.10;100.00;102062.63;5048051;28;20136;-85
2021/10/11 01:00:05;;;;;;;129.55;63.95;;;;;;;11.15;100.00;102053.16;5067745;28;20045;-81
2021/10/11 01:02:40;;;;;;;122.03;60.33;;;;;;;11.15;100.00;102047.78;5064010;28;20037;-87
2021/10/11 01:05:06;;;;;;;117.35;54.30;;;;;;;11.19;100.00;102046.53;5065015;28;20035;-84
2021/10/11 01:07:31;;;;;;;110.20;56.85;;;;;;;11.19;100.00;102045.66;5066833;28;20033;-82
2021/10/11 01:09:56;;;;;;;112.82;51.80;;;;;;;11.19;100.00;102045.66;5064135;28;20053;-88
2021/10/11 01:12:24;;;;;;;111.90;53.20;;;;;;;11.19;100.00;102045.66;5058354;28;20052;-87
2021/10/11 01:14:49;;;;;;;104.00;53.22;;;;;;;11.21;100.00;102051.78;5046933;28;20514;-85
2021/10/11 01:17:15;;;;;;;100.88;51.35;;;;;;;11.21;100.00;102046.41;5057865;28;20032;-87
2021/10/11 01:19:41;;;;;;;101.53;49.65;;;;;;;11.16;100.00;102046.78;5081435;28;20111;-82
2021/10/11 01:22:07;;;;;;;105.28;51.88;;;;;;;11.20;100.00;102045.53;5063908;28;20053;-90
2021/10/11 01:24:36;;;;;;;103.45;49.40;;;;;;;11.19;100.00;102045.66;5060398;28;20397;-87
2021/10/11 01:27:02;;;;;;;115.50;55.65;;;;;;;11.20;100.00;102036.66;5077580;28;20076;-86
2021/10/11 01:29:27;;;;;;;108.25;51.25;;;;;;;11.22;100.00;102042.72;5062743;28;20086;-88
2021/10/11 01:31:55;;;;;;;109.95;50.58;;;;;;;11.19;100.00;102041.19;5063237;28;20044;-84
2021/10/11 01:34:21;;;;;;;112.65;52.22;;;;;;;11.19;100.00;102034.94;5058984;28;20053;-82
2021/10/11 01:36:48;;;;;;;113.53;54.45;;;;;;;11.21;100.00;102035.66;5069782;28;20041;-82
2021/10/11 01:39:15;;;;;;;108.13;53.60;;;;;;;11.21;100.00;102033.81;5058983;28;20079;-80
2021/10/11 01:41:41;;;;;;;111.30;50.53;;;;;;;11.19;100.00;102027.75;5080090;28;20049;-80
2021/10/11 01:44:09;;;;;;;113.78;50.65;;;;;;;11.16;100.00;102030.66;5077413;28;20045;-90
2021/10/11 01:46:35;;;;;;;113.47;51.58;;;;;;;11.16;100.00;102032.50;5066502;28;20049;-85
2021/10/11 01:49:00;;;;;;;114.00;51.85;;;;;;;11.16;100.00;102037.88;5062830;28;20079;-89
2021/10/11 01:51:27;;;;;;;118.72;53.70;;;;;;;11.18;100.00;102030.56;5064005;28;20599;-85
2021/10/11 01:53:52;;;;;;;93.47;48.72;;;;;;;11.18;100.00;102035.94;5066052;28;20044;-83
2021/10/11 01:56:18;;;;;;;107.18;51.83;;;;;;;11.18;100.00;102033.25;5061297;28;20508;-90
2021/10/11 01:58:44;;;;;;;105.30;48.30;;;;;;;11.18;100.00;102036.78;5065349;28;20039;-85
2021/10/11 02:01:10;;;;;;;108.80;49.80;;;;;;;11.20;100.00;102031.28;5050475;28;20049;-91
2021/10/11 02:03:37;;;;;;;112.40;51.90;;;;;;;11.19;100.00;102033.13;5023046;28;20041;-88
2021/10/11 02:06:03;;;;;;;104.15;48.65;;;;;;;11.20;100.00;102029.44;5039344;28;20110;-81
2021/10/11 02:08:29;;;;;;;110.13;49.75;;;;;;;11.17;100.00;102020.81;5038120;28;20095;-87
2021/10/11 02:10:54;;;;;;;104.45;50.55;;;;;;;11.18;100.00;102027.88;5035349;28;20506;-85
2021/10/11 02:13:25;;;;;;;105.00;46.45;;;;;;;11.18;100.00;102031.41;5029535;28;20041;-90
2021/10/11 02:15:50;;;;;;;97.50;48.47;;;;;;;11.17;100.00;102042.28;5050436;28;20075;-85
2021/10/11 02:18:16;;;;;;;87.80;44.67;;;;;;;11.18;100.00;102043.97;5074467;28;20041;-87
2021/10/11 02:20:43;;;;;;;93.72;41.90;;;;;;;11.17;100.00;102034.22;5067156;28;20131;-88
2021/10/11 02:23:09;;;;;;;94.90;41.78;;;;;;;11.14;100.00;102039.88;5063033;28;20032;-87
2021/10/11 02:25:34;;;;;;;83.88;38.97;;;;;;;11.16;100.00;102049.47;5067365;28;20393;-84
2021/10/11 02:27:59;;;;;;;83.65;38.80;;;;;;;11.17;100.00;102043.13;5059025;28;20493;-84
2021/10/11 02:30:26;;;;;;;88.18;38.30;;;;;;;11.20;100.00;102050.91;5048046;28;20051;-82
2021/10/11 02:32:51;;;;;;;79.03;37.33;;;;;;;11.18;100.00;102043.97;5060494;28;20058;-82
2021/10/11 02:35:20;;;;;;;73.80;35.72;;;;;;;11.18;100.00;102041.31;5049235;28;20110;-84
2021/10/11 02:37:47;;;;;;;72.90;33.53;;;;;;;11.19;100.00;102049.25;5048795;28;20044;-88
2021/10/11 02:40:15;;;;;;;70.18;33.38;;;;;;;11.19;100.00;102043.88;5069695;28;20040;-87
2021/10/11 02:42:41;;;;;;;67.00;33.20;;;;;;;11.19;100.00;102053.72;5056594;28;20047;-90
2021/10/11 02:45:07;;;;;;;65.78;31.92;;;;;;;11.21;100.00;102046.41;5063987;28;20277;-84
2021/10/11 02:47:32;;;;;;;61.85;28.95;;;;;;;11.22;100.00;102053.44;5063613;28;20127;-89
2021/10/11 02:50:01;;;;;;;62.50;28.10;;;;;;;11.23;100.00;102056.03;5063967;28;20070;-85
2021/10/11 02:52:31;;;;;;;61.95;29.17;;;;;;;11.22;100.00;102058.81;5058598;28;20052;-90
2021/10/11 02:54:57;;;;;;;51.15;25.88;;;;;;;11.21;100.00;102057.13;5068248;28;20093;-80
2021/10/11 02:57:24;;;;;;;47.85;24.55;;;;;;;11.19;100.00;102051.03;5058121;28;20045;-86
2021/10/11 02:59:50;;;;;;;45.25;21.85;;;;;;;11.19;100.00;102041.19;5063557;28;20048;-87
2021/10/11 03:02:18;;;;;;;46.72;21.52;;;;;;;11.19;100.00;102034.94;5052007;28;20060;-88
2021/10/11 03:04:45;;;;;;;43.67;21.13;;;;;;;11.21;100.00;102046.41;5041037;28;20048;-88
2021/10/11 03:07:11;;;;;;;39.30;18.08;;;;;;;11.21;100.00;102046.41;5060533;28;20043;-86
2021/10/11 03:09:37;;;;;;;32.00;16.63;;;;;;;11.20;100.00;102045.53;5078086;28;20048;-82
2021/10/11 03:12:10;;;;;;;31.45;14.93;;;;;;;11.20;100.00;102047.38;5057309;28;20080;-88
2021/10/11 03:14:36;;;;;;;33.17;14.55;;;;;;;11.18;100.00;102052.03;5058224;28;20040;-84
2021/10/11 03:17:01;;;;;;;29.77;14.60;;;;;;;11.20;100.00;102047.38;5048353;28;20086;-87
2021/10/11 03:19:26;;;;;;;27.90;11.82;;;;;;;11.18;100.00;102047.50;5056378;28;20127;-87
2021/10/11 03:21:54;;;;;;;27.30;12.57;;;;;;;11.20;100.00;102039.34;5078323;28;20059;-88
2021/10/11 03:24:19;;;;;;;26.02;11.93;;;;;;;11.18;100.00;102035.94;5041767;28;20045;-83
2021/10/11 03:26:44;;;;;;;24.83;12.32;;;;;;;11.17;100.00;102034.22;5047661;28;20098;-86
2021/10/11 03:29:17;;;;;;;25.60;10.80;;;;;;;11.18;100.00;102030.56;5060738;28;20056;-87
2021/10/11 03:31:47;;;;;;;22.80;10.27;;;;;;;11.18;100.00;102027.88;5058034;28;20502;-85
2021/10/11 03:34:14;;;;;;;20.55;10.50;;;;;;;11.13;100.00;102019.34;5065788;28;20044;-89
2021/10/11 03:36:40;;;;;;;23.95;9.55;;;;;;;11.12;100.00;102009.63;5051004;28;20137;-81
2021/10/11 03:39:08;;;;;;;21.60;9.88;;;;;;;11.12;100.00;102013.16;5043152;28;20104;-86
2021/10/11 03:41:39;;;;;;;17.85;8.88;;;;;;;11.13;100.00;102024.72;5044773;28;20052;-88
2021/10/11 03:44:06;;;;;;;16.83;8.65;;;;;;;11.11;100.00;102018.69;5058054;28;20136;-92
2021/10/11 03:46:33;;;;;;;21.27;8.38;;;;;;;11.10;100.00;102015.09;5062712;28;20495;-83
2021/10/11 03:49:00;;;;;;;25.00;8.95;;;;;;;11.07;100.00;102018.91;5064255;28;20379;-86
2021/10/11 03:51:27;;;;;;;14.73;8.20;;;;;;;11.08;100.00;102014.41;5072964;28;20041;-84
2021/10/11 03:53:53;;;;;;;16.92;8.18;;;;;;;11.09;100.00;102023.31;5029555;28;20037;-90
2021/10/11 03:56:19;;;;;;;20.05;8.57;;;;;;;11.06;100.00;102022.59;5044401;28;20048;-89
2021/10/11 03:58:46;;;;;;;17.67;8.27;;;;;;;11.03;100.00;102022.03;5056014;28;20048;-80
2021/10/11 04:01:11;;;;;;;20.02;7.90;;;;;;;10.99;100.00;102021.47;5051262;28;20032;-87
2021/10/11 04:03:41;;;;;;;18.10;7.38;;;;;;;10.96;100.00;102011.00;5051421;28;20461;-90
2021/10/11 04:06:08;;;;;;;23.00;7.82;;;;;;;10.90;100.00;102018.72;5054067;28;20052;-85
2021/10/11 04:08:41;;;;;;;17.88;8.43;;;;;;;10.90;100.00;102018.72;5062693;28;20040;-85
2021/10/11 04:11:11;;;;;;;17.50;7.50;;;;;;;10.88;100.00;102013.50;5066152;28;20066;-88
2021/10/11 04:13:40;;;;;;;19.10;7.82;;;;;;;10.81;100.00;102012.34;5062602;28;20098;-84
2021/10/11 04:16:06;;;;;;;18.83;8.30;;;;;;;10.81;100.00;102012.34;5064117;28;20683;-86
2021/10/11 04:18:33;;;;;;;17.65;7.97;;;;;;;10.80;100.00;102010.66;5066512;28;20508;-89
2021/10/11 04:20:58;;;;;;;19.80;8.68;;;;;;;10.77;100.00;102010.94;5063735;28;20048;-85
2021/10/11 04:23:24;;;;;;;20.90;8.57;;;;;;;10.74;100.00;102021.94;5068671;28;20044;-87
2021/10/11 04:25:49;;;;;;;17.48;7.93;;;;;;;10.72;100.00;102022.06;5066786;28;20258;-81
2021/10/11 04:28:15;;;;;;;20.13;8.15;;;;;;;10.69;100.00;102030.38;5064652;28;20040;-88
2021/10/11 04:30:42;;;;;;;18.77;7.72;;;;;;;10.64;100.00;102029.09;5061610;28;20041;-86
2021/10/11 04:33:08;;;;;;;19.63;7.85;;;;;;;10.61;100.00;102035.56;5058655;28;20036;-91
2021/10/11 04:35:36;;;;;;;16.38;8.55;;;;;;;10.59;100.00;102040.25;5061657;28;20087;-86
2021/10/11 04:38:01;;;;;;;17.65;8.35;;;;;;;10.52;100.00;102028.34;5066734;28;20400;-81
2021/10/11 04:40:27;;;;;;;16.48;7.35;;;;;;;10.48;100.00;102027.75;5066900;28;20044;-87
2021/10/11 04:42:54;;;;;;;19.67;8.10;;;;;;;10.44;100.00;102031.69;5065948;28;20445;-89
2021/10/11 04:45:27;;;;;;;20.23;8.20;;;;;;;10.43;100.00;102030.00;5083303;28;20052;-83
2021/10/11 04:47:58;;;;;;;23.85;7.85;;;;;;;10.34;100.00;102030.78;5068702;28;20037;-89
2021/10/11 04:50:27;;;;;;;16.38;6.65;;;;;;;10.25;100.00;102020.81;5080294;28;20064;-84
2021/10/11 04:52:55;;;;;;;16.15;7.53;;;;;;;10.27;100.00;102026.91;5072007;28;20113;-83
2021/10/11 04:55:20;;;;;;;19.55;7.97;;;;;;;10.24;100.00;102032.53;5045719;28;20067;-87
2021/10/11 04:57:47;;;;;;;17.83;7.57;;;;;;;10.19;100.00;102027.56;5057045;28;20068;-88
2021/10/11 05:00:15;;;;;;;13.85;6.88;;;;;;;10.13;100.00;102022.72;5065168;28;20052;-82
2021/10/11 05:02:40;;;;;;;21.98;8.32;;;;;;;10.09;100.00;102032.84;5060029;28;20057;-84
2021/10/11 05:05:07;;;;;;;17.77;7.88;;;;;;;10.08;100.00;102041.88;5041123;28;20397;-81
2021/10/11 05:07:35;;;;;;;17.65;6.78;;;;;;;10.07;100.00;102040.19;5041431;28;20048;-89
2021/10/11 05:10:04;;;;;;;17.27;8.47;;;;;;;10.06;100.00;102038.47;5047657;28;20143;-85
2021/10/11 05:12:29;;;;;;;22.53;7.27;;;;;;;10.03;100.00;102033.38;5065695;28;20048;-82
2021/10/11 05:14:54;;;;;;;16.42;7.75;;;;;;;9.99;100.00;102031.09;5064232;28;20041;-81
2021/10/11 05:17:21;;;;;;;15.65;7.53;;;;;;;9.99;100.00;102048.03;5096118;28;20052;-81
2021/10/11 05:19:47;;;;;;;18.27;8.32;;;;;;;9.99;100.00;102048.03;5084704;28;20040;-85
2021/10/11 05:22:14;;;;;;;17.85;8.65;;;;;;;10.01;100.00;102051.44;5055853;28;20087;-88
2021/10/11 05:24:41;;;;;;;17.92;8.00;;;;;;;9.99;100.00;102052.56;5053295;28;20070;-87
2021/10/11 05:27:07;;;;;;;16.60;7.88;;;;;;;9.92;100.00;102049.53;5048289;28;20458;-84
2021/10/11 05:29:37;;;;;;;21.73;8.68;;;;;;;9.92;100.00;102055.72;5038604;28;20060;-82
2021/10/11 05:32:05;;;;;;;15.90;7.63;;;;;;;9.88;100.00;102056.97;5052815;28;20037;-86
2021/10/11 05:34:31;;;;;;;15.75;7.70;;;;;;;9.92;100.00;102057.56;5041749;28;20068;-87
2021/10/11 05:37:00;;;;;;;17.38;7.78;;;;;;;9.95;100.00;102049.25;5047079;28;20044;-86
2021/10/11 05:39:27;;;;;;;18.98;8.02;;;;;;;9.94;100.00;102036.84;5058914;28;20043;-84
2021/10/11 05:41:58;;;;;;;17.98;8.02;;;;;;;9.91;100.00;102037.09;5063618;28;20032;-84
2021/10/11 05:44:24;;;;;;;15.27;7.88;;;;;;;9.90;100.00;102038.09;5064610;28;20045;-84
2021/10/11 05:46:50;;;;;;;22.15;8.43;;;;;;;9.91;100.00;102037.09;5065764;28;20037;-87
2021/10/11 05:49:17;;;;;;;22.95;8.45;;;;;;;9.92;100.00;102039.63;5064900;28;20049;-82
2021/10/11 05:51:43;;;;;;;20.15;8.35;;;;;;;9.89;100.00;102060.50;5062707;28;20041;-83
2021/10/11 05:54:14;;;;;;;23.55;9.10;;;;;;;9.85;100.00;102051.03;5064214;28;20067;-83
2021/10/11 05:56:39;;;;;;;21.13;8.73;;;;;;;9.86;100.00;102042.84;5065783;28;20071;-87
2021/10/11 05:59:05;;;;;;;15.27;8.18;;;;;;;9.83;100.00;102044.94;5066997;28;20111;-87
2021/10/11 06:01:31;;;;;;;18.90;8.15;;;;;;;9.82;100.00;102051.28;5055228;28;20049;-82
2021/10/11 06:03:56;;;;;;;25.73;8.68;;;;;;;9.83;100.00;102055.66;5058599;28;20333;-84
2021/10/11 06:06:22;;;;;;;20.38;8.93;;;;;;;9.85;100.00;102057.25;5067970;28;20131;-81
2021/10/11 06:08:50;;;;;;;20.38;9.45;;;;;;;9.88;100.00;102056.13;5035434;28;20682;-87
2021/10/11 06:11:16;;;;;;;17.35;9.10;;;;;;;9.81;100.00;102054.94;5063723;28;20033;-87
2021/10/11 06:13:44;;;;;;;20.63;7.88;;;;;;;9.81;100.00;102065.66;5073610;28;20056;-84
2021/10/11 06:16:13;;;;;;;19.55;8.88;;;;;;;9.81;100.00;102066.53;5064865;28;20396;-84
2021/10/11 06:18:38;;;;;;;23.02;8.88;;;;;;;9.85;100.00;102069.78;5060311;28;20064;-86
2021/10/11 06:21:06;;;;;;;24.48;8.25;;;;;;;9.87;100.00;102070.53;5070109;28;20502;-87
2021/10/11 06:23:33;;;;;;;21.17;9.20;;;;;;;9.87;100.00;102075.91;5057279;28;20535;-87
2021/10/11 06:25:58;;;;;;;17.42;7.93;;;;;;;9.89;100.00;102068.53;5065847;28;20056;-82
2021/10/11 06:28:24;;;;;;;19.20;7.55;;;;;;;9.88;100.00;102066.84;5064885;28;20040;-85
2021/10/11 06:30:49;;;;;;;27.35;8.43;;;;;;;9.87;100.00;102073.22;5045285;28;20460;-86
2021/10/11 06:33:16;;;;;;;18.95;8.13;;;;;;;9.88;100.00;102077.59;5082024;28;20109;-86
2021/10/11 06:35:50;;;;;;;20.52;7.40;;;;;;;9.92;100.00;102079.00;5078797;28;20040;-84
2021/10/11 06:38:17;;;;;;;19.40;7.40;;;;;;;9.94;100.00;102083.28;5071007;28;20036;-87
2021/10/11 06:40:46;;;;;;;16.58;7.22;;;;;;;9.90;100.00;102081.00;5063742;28;20424;-89
2021/10/11 06:43:13;;;;;;;19.65;7.25;;;;;;;9.92;100.00;102084.38;5062126;28;20047;-90
2021/10/11 06:45:38;;;;;;;15.98;8.02;;;;;;;9.95;100.00;102084.13;5064515;28;20116;-87
2021/10/11 06:48:05;;;;;;;21.02;8.25;;;;;;;10.00;100.00;102084.59;5067480;28;20483;-86
2021/10/11 06:50:30;;;;;;;19.35;6.82;;;;;;;9.99;100.00;102087.41;5057527;28;20041;-85
2021/10/11 06:52:59;;;;;;;15.05;7.40;;;;;;;10.04;100.00;102078.00;5064031;28;20037;-83
2021/10/11 06:55:24;;;;;;;17.80;7.20;;;;;;;10.07;100.00;102083.09;5051447;28;20103;-88
2021/10/11 06:57:49;;;;;;;14.80;6.78;;;;;;;10.08;100.00;102087.47;5037978;28;20432;-86
2021/10/11 07:00:15;;;;;;;14.90;6.80;;;;;;;10.10;100.00;102093.56;5051433;28;20045;-88
2021/10/11 07:02:41;;;;;;;15.82;7.25;;;;;;;10.12;100.00;102091.59;5053463;28;20550;-89
2021/10/11 07:05:15;;;;;;;17.23;7.38;;;;;;;10.10;100.00;102090.06;5054298;28;20048;-87
2021/10/11 07:07:41;;;;;;;12.98;6.07;;;;;;;10.07;100.00;102090.28;5059832;28;20079;-90
2021/10/11 07:10:08;;;;;;;13.52;5.95;;;;;;;10.11;100.00;102086.38;5064507;28;20040;-87
2021/10/11 07:12:35;;;;;;;15.48;6.30;;;;;;;10.14;100.00;102091.47;5060424;28;20037;-90
2021/10/11 07:15:01;;;;;;;16.67;5.05;;;;;;;10.13;100.00;102090.63;5040953;28;20099;-90
2021/10/11 07:17:26;;;;;;;11.43;5.20;;;;;;;10.10;100.00;102098.09;5037659;28;20049;-86
2021/10/11 07:19:52;;;;;;;14.20;5.13;;;;;;;10.11;100.00;102095.28;5037050;28;20052;-83
2021/10/11 07:22:19;;;;;;;15.35;5.47;;;;;;;10.14;100.00;102105.72;5055523;28;20071;-86
2021/10/11 07:24:46;;;;;;;15.32;5.18;;;;;;;10.19;100.00;102099.16;5044161;28;20072;-83
2021/10/11 07:27:14;;;;;;;14.43;5.85;;;;;;;10.20;100.00;102108.88;5057049;28;20053;-89
2021/10/11 07:29:40;;;;;;;15.27;5.47;;;;;;;10.21;100.00;102106.06;5040500;28;20051;-87
2021/10/11 07:32:07;;;;;;;15.35;4.78;;;;;;;10.25;100.00;102102.16;5039096;28;20045;-85
2021/10/11 07:34:33;;;;;;;15.88;5.07;;;;;;;10.24;100.00;102113.00;5037342;28;20049;-86
2021/10/11 07:37:01;;;;;;;15.82;4.93;;;;;;;10.27;100.00;102112.78;5040881;28;20056;-82
2021/10/11 07:39:27;;;;;;;15.20;5.13;;;;;;;10.29;100.00;102130.44;5043297;28;20441;-84
2021/10/11 07:41:54;;;;;;;13.25;4.80;;;;;;;10.33;100.00;102131.06;5048119;28;20037;-83
2021/10/11 07:44:20;;;;;;;17.90;5.57;;;;;;;10.37;100.00;102135.16;5042570;28;20216;-88
2021/10/11 07:46:52;;;;;;;13.10;4.35;;;;;;;10.39;100.00;102131.38;5057123;28;20509;-84
2021/10/11 07:49:18;;;;;;;13.13;5.38;;;;;;;10.39;100.00;102125.16;5051560;28;20123;-87
2021/10/11 07:51:43;;;;;;;11.27;3.80;;;;;;;10.45;100.00;102129.16;5049514;28;20039;-88
2021/10/11 07:54:09;;;;;;;11.45;4.60;;;;;;;10.47;100.00;102133.41;5065282;28;20067;-84
2021/10/11 07:56:36;;;;;;;17.88;4.40;;;;;;;10.53;100.00;102122.16;5052910;28;20443;-86
2021/10/11 07:59:02;;;;;;;15.43;4.82;;;;;;;10.54;100.00;102115.78;5061881;28;20044;-89
2021/10/11 08:01:27;;;;;;;12.18;4.65;;;;;;;10.63;100.00;102126.72;5045203;28;20037;-85
2021/10/11 08:03:55;;;;;;;14.75;4.55;;;;;;;10.61;100.00;102130.38;5066816;28;20068;-84
2021/10/11 08:06:22;;;;;;;10.82;4.32;;;;;;;10.61;100.00;102133.06;5062931;28;20049;-84
2021/10/11 08:08:47;;;;;;;14.15;5.20;;;;;;;10.68;100.00;102136.09;5060605;28;20039;-90
2021/10/11 08:11:13;;;;;;;17.15;5.50;;;;;;;10.71;100.00;102125.09;5048583;28;20830;-89
2021/10/11 08:13:40;;;;;;;16.27;5.50;;;;;;;10.73;100.00;102114.19;5080908;28;20049;-85
2021/10/11 08:16:06;;;;;;;15.07;6.15;;;;;;;10.71;100.00;102124.25;5066769;28;20040;-86
2021/10/11 08:18:31;;;;;;;14.60;5.85;;;;;;;10.74;100.00;102129.34;5068010;28;20123;-88
2021/10/11 08:21:00;;;;;;;15.70;7.45;;;;;;;10.86;100.00;102127.41;5068798;28;20467;-88
2021/10/11 08:23:26;;;;;;;18.80;9.07;;;;;;;10.94;100.00;102125.75;5065635;28;20040;-83
2021/10/11 08:25:54;;;;;;;19.60;10.05;;;;;;;11.02;100.00;102131.31;5034408;28;20048;-88
2021/10/11 08:28:20;;;;;;;18.00;8.50;;;;;;;11.10;100.00;102129.78;5042281;28;20148;-92
2021/10/11 08:30:46;;;;;;;19.25;9.25;;;;;;;11.20;100.00;102130.69;5068489;28;20481;-86
2021/10/11 08:33:14;;;;;;;14.52;6.88;;;;;;;11.23;100.00;102135.78;5029950;28;20055;-86
2021/10/11 08:35:39;;;;;;;20.02;7.63;;;;;;;11.26;100.00;102139.03;5077984;28;20044;-89
2021/10/11 08:38:07;;;;;;;15.38;6.20;;;;;;;11.33;100.00;102142.03;5064959;28;20053;-88
2021/10/11 08:40:33;;;;;;;16.35;6.22;;;;;;;11.39;100.00;102152.22;5046529;28;20053;-88
2021/10/11 08:42:58;;;;;;;12.95;4.60;;;;;;;11.40;100.00;102143.19;5061766;28;20040;-86
2021/10/11 08:45:24;;;;;;;10.80;5.22;;;;;;;11.43;100.00;102137.53;5070865;28;20044;-83
2021/10/11 08:47:51;;;;;;;14.27;4.82;;;;;;;11.51;100.00;102135.03;5049604;28;20420;-82
2021/10/11 08:50:17;;;;;;;7.95;3.88;;;;;;;11.61;100.00;102137.72;5091507;28;20056;-84
2021/10/11 08:52:43;;;;;;;9.75;3.95;;;;;;;11.69;100.00;102153.19;5071874;28;20048;-83
2021/10/11 08:55:09;;;;;;;10.18;3.42;;;;;;;11.75;100.00;102145.41;5060682;28;20045;-84
2021/10/11 08:57:34;;;;;;;11.18;3.28;;;;;;;11.75;100.00;102152.63;5059873;28;20072;-88
2021/10/11 09:00:16;;;;;;;8.00;3.90;;;;;;;11.81;100.00;102135.91;5067840;28;20473;-91
2021/10/11 09:02:55;;;;;;;11.18;4.45;;;;;;;11.84;100.00;102151.78;5048335;28;20033;-84
2021/10/11 09:05:26;;;;;;;13.00;4.47;;;;;;;11.88;100.00;102158.63;5060996;28;20443;-86
2021/10/11 09:08:10;;;;;;;14.60;3.97;;;;;;;11.93;100.00;102153.66;5064579;28;20035;-88
2021/10/11 09:10:49;;;;;;;8.15;3.10;;;;;;;12.03;100.00;102144.75;5050953;28;20570;-86
2021/10/11 09:13:15;;;;;;;17.13;4.38;;;;;;;12.08;99.87;102140.63;5062064;28;20059;-85
2021/10/11 09:15:41;;;;;;;11.30;2.90;;;;;;;12.10;98.83;102145.88;5041746;28;20109;-86
2021/10/11 09:18:11;;;;;;;12.50;2.95;;;;;;;12.19;99.09;102134.28;5062675;28;20348;-86
2021/10/11 09:20:40;;;;;;;9.55;2.88;;;;;;;12.25;97.77;102138.22;5039849;28;20049;-88
2021/10/11 09:23:08;;;;;;;13.55;2.53;;;;;;;12.30;97.60;102138.66;5046846;28;20052;-88
2021/10/11 09:25:39;;;;;;;10.90;3.10;;;;;;;12.42;97.59;102149.13;5012916;28;20040;-89
2021/10/11 09:28:07;;;;;;;13.30;3.30;;;;;;;12.44;96.26;102137.38;5054667;28;20557;-85
2021/10/11 09:30:36;;;;;;;11.10;2.58;;;;;;;12.45;95.97;102139.06;5082071;28;20040;-88
2021/10/11 09:33:22;;;;;;;12.75;3.25;;;;;;;12.59;97.37;102146.69;5078026;28;20071;-89
2021/10/11 09:35:50;;;;;;;9.15;2.90;;;;;;;12.69;95.14;102150.25;5061288;28;20073;-92
2021/10/11 09:38:24;;;;;;;10.00;2.97;;;;;;;12.70;94.22;102133.06;5061952;28;20039;-87
2021/10/11 09:40:52;;;;;;;7.93;2.28;;;;;;;12.77;94.72;102144.09;5060374;28;20041;-87
2021/10/11 09:43:25;;;;;;;12.98;2.30;;;;;;;12.86;94.50;102144.09;5061388;28;20569;-86
2021/10/11 09:45:51;;;;;;;9.88;2.17;;;;;;;13.04;95.15;102151.41;5075251;28;20048;-83
2021/10/11 09:48:18;;;;;;;11.10;2.25;;;;;;;13.14;93.38;102140.56;5050185;28;20576;-90
2021/10/11 09:50:44;;;;;;;9.85;2.40;;;;;;;13.23;92.91;102142.38;5068882;28;20044;-85
2021/10/11 09:53:16;;;;;;;11.10;1.90;;;;;;;13.25;91.22;102133.19;5060449;28;20052;-84
2021/10/11 09:55:47;;;;;;;11.85;2.15;;;;;;;13.34;91.59;102141.38;5064967;28;20059;-85
2021/10/11 09:58:13;;;;;;;10.65;2.00;;;;;;;13.41;90.52;102139.78;5064558;28;20059;-86
2021/10/11 10:00:40;;;;;;;11.05;2.08;;;;;;;13.45;89.99;102142.03;5065663;28;20075;-87
2021/10/11 10:03:05;;;;;;;9.02;1.85;;;;;;;13.52;90.40;102140.44;5063068;28;20040;-85
2021/10/11 10:05:36;;;;;;;6.90;1.70;;;;;;;13.60;89.68;102145.06;5058605;28;20123;-87
2021/10/11 10:08:09;;;;;;;10.90;2.20;;;;;;;13.67;90.35;102138.06;5051293;28;20041;-86
2021/10/11 10:10:35;;;;;;;7.75;1.98;;;;;;;13.70;88.05;102135.06;5062920;28;20055;-88
2021/10/11 10:13:01;;;;;;;10.95;2.25;;;;;;;13.72;89.15;102138.47;5030384;28;20055;-86
2021/10/11 10:15:33;;;;;;;10.80;1.95;;;;;;;13.74;89.02;102122.97;5056711;28;20041;-83
2021/10/11 10:18:10;;;;;;;14.35;1.90;;;;;;;13.73;86.27;102132.06;5043690;28;20055;-83
2021/10/11 10:20:49;;;;;;;9.57;1.80;;;;;;;13.80;87.27;102134.16;5078465;28;20196;-85
2021/10/11 10:23:31;;;;;;;11.73;1.60;;;;;;;13.89;87.41;102133.22;5062148;28;20037;-82
2021/10/11 10:25:59;;;;;;;9.43;1.67;;;;;;;14.05;86.96;102133.38;5080837;28;20052;-89
2021/10/11 10:28:29;;;;;;;7.55;1.83;;;;;;;14.22;85.24;102124.44;5044554;28;20075;-82
2021/10/11 10:31:00;;;;;;;10.45;1.88;;;;;;;14.26;83.34;102116.84;5060268;28;20120;-85
2021/10/11 10:33:39;;;;;;;7.95;1.55;;;;;;;14.31;83.98;102117.25;5061741;28;20770;-84
2021/10/11 10:36:24;;;;;;;6.53;1.40;;;;;;;14.30;82.71;102123.66;5049161;28;20578;-87
2021/10/11 10:39:01;;;;;;;10.63;1.92;;;;;;;14.29;82.40;102126.50;5054889;28;20053;-83
2021/10/11 10:41:28;;;;;;;10.43;2.03;;;;;;;14.34;83.72;102140.38;5040685;28;20401;-87
2021/10/11 10:43:54;;;;;;;7.68;1.63;;;;;;;14.28;81.97;102132.91;5043385;28;20099;-87
2021/10/11 10:46:20;;;;;;;7.05;1.33;;;;;;;14.36;84.56;102130.28;5055759;28;20044;-86
2021/10/11 10:48:48;;;;;;;14.45;1.83;;;;;;;14.38;83.30;102120.16;5061455;28;20101;-87
2021/10/11 10:51:14;;;;;;;3.88;1.23;;;;;;;14.35;82.40;102131.28;5054906;28;20036;-88
2021/10/11 10:54:01;;;;;;;7.53;1.33;;;;;;;14.34;81.98;102124.19;5065495;28;20547;-89
2021/10/11 10:56:34;;;;;;;7.32;1.42;;;;;;;14.32;80.80;102128.88;5059771;28;20612;-87
2021/10/11 10:59:04;;;;;;;7.97;1.40;;;;;;;14.32;81.24;102126.19;5058881;28;20068;-86
2021/10/11 11:01:31;;;;;;;11.38;1.67;;;;;;;14.35;81.99;102131.28;5060649;28;20067;-87
2021/10/11 11:03:56;;;;;;;9.30;1.35;;;;;;;14.38;82.23;102131.78;5065024;28;20555;-88
2021/10/11 11:06:31;;;;;;;10.25;1.80;;;;;;;14.43;82.23;102126.78;5058967;28;20057;-86
2021/10/11 11:08:59;;;;;;;12.63;1.85;;;;;;;14.44;81.68;102122.22;5061030;28;20151;-84
2021/10/11 11:11:29;;;;;;;6.80;1.80;;;;;;;14.35;81.28;102115.06;5062645;28;20083;-91